Highland-University Park's Hourly Summary for Sunday, March 19, 2017
Hour Temp
(f)
RH
(%)
Solar Rad.
(MJ/m2)
Rainfall
(in)
Wind
(mph)
3/19/2017 12:00 AM 70 71 0 0 1.56
3/19/2017 1:00 AM 69 74 0 0 2.33
3/19/2017 2:00 AM 67 78 0 0 2.5
3/19/2017 3:00 AM 65 82 0 0 1.76
3/19/2017 4:00 AM 65 85 0 0 1.35
3/19/2017 5:00 AM 65 85 0 0 0.57
3/19/2017 6:00 AM 64 86 0 0 0.46
3/19/2017 7:00 AM 62 90 0 0 0.22
3/19/2017 8:00 AM 62 95 0.02 0 0.17
3/19/2017 9:00 AM 65 85 0.28 0 0.48
3/19/2017 10:00 AM 69 77 0.86 0 1.98
3/19/2017 11:00 AM 69 73 1.3 0 2.9
3/19/2017 12:00 PM 74 63 2.21 0 1.96
3/19/2017 1:00 PM 77 59 2.77 0 3
3/19/2017 2:00 PM 79 53 2.97 0 3.12
3/19/2017 3:00 PM 82 49 2.85 0 2.86
3/19/2017 4:00 PM 83 46 2.4 0 3.67
3/19/2017 5:00 PM 83 45 1.97 0 3.53
3/19/2017 6:00 PM 83 48 1.31 0 3.06
3/19/2017 7:00 PM 81 50 0.52 0 2.85
3/19/2017 8:00 PM 77 56 0.04 0 2.33
3/19/2017 9:00 PM 76 59 0 0 2.67
3/19/2017 10:00 PM 75 59 0 0 2.44
3/19/2017 11:00 PM 73 59 0 0 1.97
Data Summary 72 67 19.50 0.00 2.07